メインページ
METAR-TAF:

METAR-TAF

空港 :

Massena, ニューヨーク, アメリカ合衆国

緯度: 44-56-09N, 経度: 074-50-44W, 海抜: 66m

現時点の気象観測

当レポートは47分前の05:53(UTC)に作成
北東の風 5kt
気温 3°C
湿度 81%
気圧 1017 hPa
視程: 16.1km
晴天

METAR: KMSS 040553Z AUTO 05005KT 10SM CLR 03/00 A3003 RMK AO2 SLP171 T00330000 10078 20033 58003

時間: 02:40 (06:40 UTC)

予報

当レポートは1時間8分前の05:32(UTC)に作成
予報は04日の 06時(UTC)から 05日の 06時(UTC)まで有効
北東の風 7kt
視程: 10km
高度10000ftの雲は散在している
04日の 0900時(UTC)から
北東の風 7kt
視程: 9.7km
高度2200ftの曇り
04日の 09時(UTC)から 04日の 12時(UTC)まで一時的に
視程: 6.4km
高度1200ftの千切れ雲あり
04日の 1200時(UTC)から
東/北東の風 6kt
視程: 10km
高度1800ftの曇り
04日の 2300時(UTC)から
変向風 4kt
視程: 10km
高度4000ftの千切れ雲あり

TAF: KMSS 040532Z 0406/0506 04007KT P6SM SCT100 FM040900 04007KT 6SM BR OVC022 TEMPO 0409/0412 4SM BR BKN012 FM041200 06006KT P6SM OVC018 FM042300 VRB04KT P6SM BKN040

4,000以上の空港の気象観測と天気予報(METAR報とTAF報)

利用可能な観測所は地図上に黄色い丸と赤い丸で示す。

丸の上にカーソルを重ねると観測所名を参照できる。

次にクリックすると気象観測と天気予報を参照できる。

マップの切り替え:黒色「×」印の緑ボタンをクリックして拡大、「-」印の緑ボタンをクリックして縮小、緑色の三角印をクリックして隣りの地図に切り替え


METAR-TAF: